Time;durP1;ratioP1;P1;durP2;ratioP2;P2;SDS_P1;SDS_P2;PMS_P1;PMS_P2;Temp;Humidity;BMP_temperature;BMP_pressure;BME280_temperature;BME280_humidity;BME280_pressure;Samples;Min_cycle;Max_cycle;Signal;HPM_P1;HPM_P2
2022/09/15 00:01:35;;;;;;;31.50;21.00;;;;;;;-148.88;100.00;75017.63;5117252;27;20019;-82
2022/09/15 00:04:01;;;;;;;30.90;20.55;;;;;;;-148.88;100.00;75013.56;5116916;27;20138;-82
2022/09/15 00:06:26;;;;;;;32.78;21.13;;;;;;;-148.88;100.00;75027.78;5117051;27;20508;-82
2022/09/15 00:08:53;;;;;;;30.63;19.50;;;;;;;-148.88;100.00;75013.56;5116964;27;20035;-82
2022/09/15 00:11:22;;;;;;;31.73;21.13;;;;;;;-148.88;100.00;75019.66;5117132;27;20077;-82
2022/09/15 00:13:47;;;;;;;28.75;19.63;;;;;;;-148.88;100.00;75025.75;5116920;27;20018;-82
2022/09/15 00:16:14;;;;;;;29.08;19.23;;;;;;;-148.88;100.00;75021.69;5116978;27;20445;-81
2022/09/15 00:18:40;;;;;;;29.83;19.98;;;;;;;-148.88;100.00;75042.00;5117001;27;20398;-82
2022/09/15 00:21:07;;;;;;;34.92;22.42;;;;;;;-148.88;100.00;75054.19;5117844;27;20019;-82
2022/09/15 00:23:33;;;;;;;37.97;22.20;;;;;;;-148.88;100.00;75046.06;5116588;27;20471;-83
2022/09/15 00:25:58;;;;;;;33.45;22.30;;;;;;;-148.88;100.00;75042.00;5117130;27;20517;-83
2022/09/15 00:28:24;;;;;;;37.13;21.83;;;;;;;-148.88;100.00;75044.03;5116910;27;20027;-82
2022/09/15 00:30:51;;;;;;;36.33;23.02;;;;;;;-148.88;100.00;75052.16;5116977;27;20023;-82
2022/09/15 00:33:17;;;;;;;37.88;23.52;;;;;;;-148.88;100.00;75054.19;5116615;27;20038;-82
2022/09/15 00:35:45;;;;;;;40.78;23.48;;;;;;;-148.88;100.00;75050.13;5116660;27;20037;-83
2022/09/15 00:38:11;;;;;;;39.88;23.45;;;;;;;-148.88;100.00;75056.22;5116608;27;20080;-82
2022/09/15 00:40:49;;;;;;;37.60;23.77;;;;;;;-148.88;100.00;75056.22;5134708;27;20023;-82
2022/09/15 00:43:16;;;;;;;36.67;24.40;;;;;;;-148.88;100.00;75046.06;5116414;27;20350;-82
2022/09/15 00:45:43;;;;;;;38.10;23.98;;;;;;;-148.88;100.00;75056.22;5116587;27;20027;-82
2022/09/15 00:48:15;;;;;;;40.75;23.52;;;;;;;-148.88;100.00;75056.22;5116542;27;20019;-82
2022/09/15 00:50:44;;;;;;;36.33;22.73;;;;;;;-148.88;100.00;75050.13;5134762;27;20077;-82
2022/09/15 00:53:11;;;;;;;35.25;22.85;;;;;;;-148.88;100.00;75064.34;5115984;27;20498;-85
2022/09/15 00:55:41;;;;;;;37.88;24.25;;;;;;;-148.88;100.00;75068.41;5116005;27;20114;-86
2022/09/15 00:58:13;;;;;;;34.13;23.00;;;;;;;-148.88;100.00;75072.47;5115457;28;20050;-86
2022/09/15 01:00:48;;;;;;;34.47;22.90;;;;;;;-148.88;100.00;75072.47;5134407;27;20023;-84
2022/09/15 01:03:14;;;;;;;38.33;23.45;;;;;;;-148.88;100.00;75078.56;5134192;27;20031;-86
2022/09/15 01:05:45;;;;;;;37.75;23.13;;;;;;;-148.88;100.00;75070.44;5134302;27;20031;-85
2022/09/15 01:08:17;;;;;;;40.92;25.15;;;;;;;-148.88;100.00;75068.41;5134276;27;20080;-85
2022/09/15 01:10:45;;;;;;;41.40;24.73;;;;;;;-148.88;100.00;75070.44;5134410;27;20034;-84
2022/09/15 01:13:12;;;;;;;44.78;24.92;;;;;;;-148.88;100.00;75072.47;5115712;27;20393;-86
2022/09/15 01:15:54;;;;;;;34.35;23.15;;;;;;;-148.88;100.00;75070.44;5116160;27;20037;-81
2022/09/15 01:18:21;;;;;;;46.33;25.55;;;;;;;-148.88;100.00;75070.44;5116198;27;20502;-85
2022/09/15 01:21:11;;;;;;;33.42;22.35;;;;;;;-148.88;100.00;75080.59;5133887;27;20023;-86
2022/09/15 01:23:48;;;;;;;40.67;19.73;;;;;;;-148.88;100.00;75086.69;5133761;27;20065;-83
2022/09/15 01:26:45;;;;;;;55.17;18.90;;;;;;;-148.88;100.00;75106.97;5116153;27;20027;-83
2022/09/15 01:29:41;;;;;;;90.00;21.98;;;;;;;-148.88;100.00;75123.22;5116177;28;20027;-83
2022/09/15 01:35:36;;;;;;;43.47;16.45;;;;;;;-148.88;100.00;75123.22;5134183;28;20042;-83
2022/09/15 01:38:09;;;;;;;36.15;17.30;;;;;;;-148.88;100.00;75129.31;5115477;28;20038;-83
2022/09/15 01:40:40;;;;;;;40.75;19.25;;;;;;;-148.88;100.00;75129.31;5115672;28;20027;-83
2022/09/15 01:43:08;;;;;;;41.05;19.52;;;;;;;-148.88;100.00;75133.38;5115417;28;20027;-84
2022/09/15 01:45:36;;;;;;;46.92;19.77;;;;;;;-148.88;100.00;75137.44;5115429;28;20087;-83
2022/09/15 01:48:05;;;;;;;36.03;19.45;;;;;;;-148.88;100.00;75127.28;5133855;28;20023;-83
2022/09/15 01:50:40;;;;;;;51.00;21.17;;;;;;;-148.88;100.00;75133.38;5115800;28;20469;-83
2022/09/15 01:53:12;;;;;;;48.90;20.90;;;;;;;-148.88;100.00;75123.22;5134033;28;20019;-84
2022/09/15 01:55:43;;;;;;;33.65;18.85;;;;;;;-148.88;100.00;75121.19;5115394;28;20023;-82
2022/09/15 01:58:08;;;;;;;32.22;18.50;;;;;;;-148.88;100.00;75129.31;5134048;28;20020;-83
2022/09/15 02:00:39;;;;;;;45.05;20.27;;;;;;;-148.88;100.00;75139.47;5133616;27;20128;-83
2022/09/15 02:03:32;;;;;;;48.75;19.00;;;;;;;-148.88;100.00;75143.53;5133534;28;20151;-84
2022/09/15 02:06:02;;;;;;;59.15;20.48;;;;;;;-148.88;100.00;75149.63;5115935;28;20505;-83
2022/09/15 02:08:35;;;;;;;42.45;20.60;;;;;;;-148.88;100.00;75139.47;5133299;28;20572;-84
2022/09/15 02:11:20;;;;;;;47.05;20.83;;;;;;;-148.88;100.00;75147.59;5118620;27;20019;-83
2022/09/15 02:14:17;;;;;;;44.30;20.90;;;;;;;-148.88;100.00;75147.59;5137669;27;20025;-83
2022/09/15 02:16:48;;;;;;;51.85;21.85;;;;;;;-148.88;100.00;75151.66;5119213;27;20023;-83
2022/09/15 02:19:40;;;;;;;35.22;21.23;;;;;;;-148.88;100.00;75155.72;5137556;27;20096;-83
2022/09/15 02:22:16;;;;;;;28.33;20.00;;;;;;;-148.88;100.00;75145.56;5118984;27;20027;-83
2022/09/15 02:24:48;;;;;;;45.00;19.65;;;;;;;-148.88;100.00;75155.72;5118788;27;20405;-83
2022/09/15 02:27:21;;;;;;;36.20;21.75;;;;;;;-148.88;100.00;75165.88;5119109;27;20061;-83
2022/09/15 02:29:47;;;;;;;30.55;19.33;;;;;;;-148.88;100.00;75155.72;5137401;27;20018;-83
2022/09/15 02:32:16;;;;;;;30.42;19.08;;;;;;;-148.88;100.00;75159.78;5119713;27;20026;-83
2022/09/15 02:34:45;;;;;;;29.15;18.52;;;;;;;-148.88;100.00;75176.03;5118581;27;20469;-83
2022/09/15 02:37:11;;;;;;;40.35;17.25;;;;;;;-148.88;100.00;75188.22;5118629;27;20027;-83
2022/09/15 02:39:42;;;;;;;28.63;16.25;;;;;;;-148.88;100.00;75184.16;5118443;27;20015;-83
2022/09/15 02:42:08;;;;;;;27.27;17.52;;;;;;;-148.88;100.00;75180.09;5136938;27;20108;-82
2022/09/15 02:44:34;;;;;;;25.98;17.33;;;;;;;-148.88;100.00;75188.22;5118424;27;20031;-83
2022/09/15 02:47:00;;;;;;;31.60;19.30;;;;;;;-148.88;100.00;75180.09;5118563;27;20072;-83
2022/09/15 02:49:26;;;;;;;28.77;19.70;;;;;;;-148.88;100.00;75174.00;5137231;27;20109;-83
2022/09/15 02:51:51;;;;;;;29.20;20.33;;;;;;;-148.88;100.00;75174.00;5118364;27;20105;-84
2022/09/15 02:54:16;;;;;;;30.70;20.73;;;;;;;-148.88;100.00;75169.94;5136655;27;20084;-84
2022/09/15 02:56:42;;;;;;;33.70;21.90;;;;;;;-148.88;100.00;75171.97;5136600;27;20023;-83
2022/09/15 02:59:07;;;;;;;36.85;23.15;;;;;;;-148.88;100.00;75174.00;5118305;27;20019;-82
2022/09/15 03:01:33;;;;;;;35.95;22.42;;;;;;;-148.88;100.00;75157.75;5136698;27;20023;-84
2022/09/15 03:03:59;;;;;;;37.75;22.98;;;;;;;-148.88;100.00;75157.75;5118043;27;20019;-83
2022/09/15 03:06:27;;;;;;;41.17;23.73;;;;;;;-148.88;100.00;75147.59;5136671;27;20401;-83
2022/09/15 03:08:57;;;;;;;36.95;23.35;;;;;;;-148.88;100.00;75135.41;5118343;27;20337;-83
2022/09/15 03:11:24;;;;;;;35.10;22.45;;;;;;;-148.88;100.00;75135.41;5118345;27;20577;-83
2022/09/15 03:13:57;;;;;;;34.90;22.40;;;;;;;-148.88;100.00;75127.28;5117883;27;20030;-83
2022/09/15 03:16:23;;;;;;;35.83;21.98;;;;;;;-148.88;100.00;75127.28;5118976;27;20065;-84
2022/09/15 03:18:49;;;;;;;36.95;21.73;;;;;;;-148.88;100.00;75133.38;5136304;27;20019;-85
2022/09/15 03:21:17;;;;;;;34.72;22.02;;;;;;;-148.88;100.00;75123.22;5117042;28;20030;-85
2022/09/15 03:23:44;;;;;;;32.22;21.42;;;;;;;-148.88;100.00;75129.31;5117595;27;20084;-84
2022/09/15 03:26:09;;;;;;;30.88;21.00;;;;;;;-148.88;100.00;75119.16;5136338;27;20105;-84
2022/09/15 03:28:36;;;;;;;30.88;20.17;;;;;;;-148.88;100.00;75131.34;5136135;27;20035;-85
2022/09/15 03:31:02;;;;;;;30.52;19.88;;;;;;;-148.88;100.00;75123.22;5136127;27;20129;-86
2022/09/15 03:33:28;;;;;;;32.10;19.38;;;;;;;-148.88;100.00;75119.16;5117775;27;20362;-84
2022/09/15 03:35:54;;;;;;;32.47;19.98;;;;;;;-148.88;100.00;75113.06;5136508;27;20420;-84
2022/09/15 03:38:20;;;;;;;32.25;20.17;;;;;;;-148.88;100.00;75119.16;5136101;27;20474;-84
2022/09/15 03:40:56;;;;;;;29.45;19.77;;;;;;;-148.88;100.00;75113.06;5118364;27;20488;-85
2022/09/15 03:43:22;;;;;;;36.40;19.60;;;;;;;-148.88;100.00;75115.09;5135947;27;20420;-85
2022/09/15 03:45:47;;;;;;;27.35;19.35;;;;;;;-148.88;100.00;75117.13;5118112;27;20172;-86
2022/09/15 03:48:13;;;;;;;30.05;19.65;;;;;;;-148.88;100.00;75119.16;5135816;27;20534;-84
2022/09/15 03:50:38;;;;;;;25.67;17.65;;;;;;;-148.88;100.00;75119.16;5136226;27;20091;-85
2022/09/15 03:53:03;;;;;;;28.40;18.95;;;;;;;-148.88;100.00;75098.84;5135565;27;20511;-84
2022/09/15 03:55:28;;;;;;;26.83;18.52;;;;;;;-148.88;100.00;75113.06;5117155;27;20046;-84
2022/09/15 03:57:54;;;;;;;29.52;18.60;;;;;;;-148.88;100.00;75111.03;5117146;27;20023;-83
2022/09/15 04:00:21;;;;;;;25.75;17.58;;;;;;;-148.88;100.00;75102.91;5135520;27;20072;-84
2022/09/15 04:02:46;;;;;;;28.02;18.02;;;;;;;-148.88;100.00;75102.91;5135285;27;20384;-85
2022/09/15 04:05:12;;;;;;;26.00;17.25;;;;;;;-148.88;100.00;75100.88;5135631;27;20034;-83
2022/09/15 04:07:39;;;;;;;28.90;18.75;;;;;;;-148.88;100.00;75102.91;5117352;27;20015;-84
2022/09/15 04:10:06;;;;;;;25.45;15.98;;;;;;;-148.88;100.00;75102.91;5117214;27;20062;-84
2022/09/15 04:12:31;;;;;;;26.17;17.33;;;;;;;-148.88;100.00;75096.81;5135553;27;20015;-84
2022/09/15 04:14:57;;;;;;;21.75;14.77;;;;;;;-148.88;100.00;75082.63;5135304;27;20358;-84
2022/09/15 04:17:22;;;;;;;22.77;16.42;;;;;;;-148.88;100.00;75094.81;5117385;27;20114;-84
2022/09/15 04:19:48;;;;;;;29.13;17.40;;;;;;;-148.88;100.00;75094.81;5116908;27;20023;-85
2022/09/15 04:22:13;;;;;;;25.92;18.13;;;;;;;-148.88;100.00;75082.63;5116940;27;20023;-84
2022/09/15 04:24:38;;;;;;;26.42;18.15;;;;;;;-148.88;100.00;75080.59;5135148;27;20041;-84
2022/09/15 04:27:04;;;;;;;25.90;17.00;;;;;;;-148.88;100.00;75084.66;5135071;27;20038;-84
2022/09/15 04:29:29;;;;;;;31.27;19.27;;;;;;;-148.88;100.00;75088.72;5134919;27;20019;-85
2022/09/15 04:31:54;;;;;;;27.45;18.77;;;;;;;-148.88;100.00;75086.69;5116642;27;20047;-81
2022/09/15 04:34:20;;;;;;;24.73;17.63;;;;;;;-148.88;100.00;75076.53;5116484;27;20119;-83
2022/09/15 04:36:45;;;;;;;28.52;18.73;;;;;;;-148.88;100.00;75078.56;5116866;27;20027;-83
2022/09/15 04:39:10;;;;;;;24.45;16.65;;;;;;;-148.88;100.00;75070.44;5117789;27;20050;-82
2022/09/15 04:41:37;;;;;;;25.58;16.92;;;;;;;-148.88;100.00;75068.41;5117954;27;20435;-83
2022/09/15 04:44:02;;;;;;;23.65;15.63;;;;;;;-148.88;100.00;75066.38;5116967;27;20021;-84
2022/09/15 04:46:27;;;;;;;22.65;15.95;;;;;;;-148.88;100.00;75068.41;5117214;27;20027;-84
2022/09/15 04:48:54;;;;;;;22.80;15.63;;;;;;;-148.88;100.00;75070.44;5116804;27;20512;-83
2022/09/15 04:51:21;;;;;;;21.17;15.40;;;;;;;-148.88;100.00;75066.38;5116918;27;20019;-83
2022/09/15 04:53:47;;;;;;;19.05;13.60;;;;;;;-148.88;100.00;75060.28;5116359;27;20027;-86
2022/09/15 04:56:15;;;;;;;18.73;13.00;;;;;;;-148.88;100.00;75058.25;5117344;27;20019;-86
2022/09/15 04:58:49;;;;;;;20.27;14.23;;;;;;;-148.88;100.00;75052.16;5134972;27;20055;-85
2022/09/15 05:01:15;;;;;;;;;;;;;;;-148.88;100.00;75050.13;5120402;27;20027;-83
2022/09/15 05:03:41;;;;;;;18.10;13.35;;;;;;;-148.88;100.00;75056.22;5134311;27;19998;-83
2022/09/15 05:06:09;;;;;;;18.90;13.18;;;;;;;-148.88;100.00;75064.34;5116435;27;20506;-82
2022/09/15 05:08:35;;;;;;;17.70;13.00;;;;;;;-148.88;100.00;75066.38;5134825;27;20027;-83
2022/09/15 05:11:03;;;;;;;18.52;13.00;;;;;;;-148.88;100.00;75066.38;5117605;27;20077;-83
2022/09/15 05:13:29;;;;;;;20.40;12.77;;;;;;;-148.88;100.00;75050.13;5134870;27;20072;-83
2022/09/15 05:15:54;;;;;;;19.02;13.23;;;;;;;-148.88;100.00;75050.13;5117298;27;20015;-82
2022/09/15 05:18:19;;;;;;;17.02;12.05;;;;;;;-148.88;100.00;75054.19;5116290;27;20023;-83
2022/09/15 05:20:45;;;;;;;17.98;11.13;;;;;;;-148.88;100.00;75046.06;5134406;27;20023;-83
2022/09/15 05:23:10;;;;;;;16.15;11.82;;;;;;;-148.88;100.00;75046.06;5116700;27;20030;-83
2022/09/15 05:25:35;;;;;;;16.15;10.98;;;;;;;-148.88;100.00;75033.88;5117404;27;20096;-83
2022/09/15 05:28:01;;;;;;;15.25;10.43;;;;;;;-148.88;100.00;75033.88;5116666;28;20029;-82
2022/09/15 05:30:26;;;;;;;13.90;9.50;;;;;;;-148.88;100.00;75037.94;5135372;27;20393;-82
2022/09/15 05:32:52;;;;;;;15.35;10.18;;;;;;;-148.88;100.00;75044.03;5134541;27;20381;-82
2022/09/15 05:35:18;;;;;;;15.85;10.07;;;;;;;-148.88;100.00;75035.91;5116477;28;20031;-83
2022/09/15 05:37:43;;;;;;;15.20;10.38;;;;;;;-148.88;100.00;75029.81;5134811;27;20031;-83
2022/09/15 05:40:09;;;;;;;13.57;10.23;;;;;;;-148.88;100.00;75029.81;5134408;27;20497;-82
2022/09/15 05:42:34;;;;;;;15.85;9.70;;;;;;;-148.88;100.00;75023.72;5134438;28;20030;-82
2022/09/15 05:44:59;;;;;;;11.43;8.63;;;;;;;-148.88;100.00;75021.69;5135210;27;20031;-83
2022/09/15 05:47:25;;;;;;;14.00;9.18;;;;;;;-148.88;100.00;75021.69;5120141;27;20076;-82
2022/09/15 05:49:50;;;;;;;12.68;9.05;;;;;;;-148.88;100.00;75015.59;5119905;27;20023;-82
2022/09/15 05:52:15;;;;;;;13.68;9.18;;;;;;;-148.88;100.00;75009.50;5138783;27;20486;-83
2022/09/15 05:54:40;;;;;;;14.70;9.48;;;;;;;-148.88;100.00;75007.47;5119902;27;20030;-83
2022/09/15 05:57:06;;;;;;;11.80;8.60;;;;;;;-148.88;100.00;75001.38;5120974;27;20027;-83
2022/09/15 05:59:32;;;;;;;11.80;8.98;;;;;;;-148.88;100.00;75009.50;5138861;27;20027;-83
2022/09/15 06:01:58;;;;;;;12.88;8.80;;;;;;;-148.88;100.00;75009.50;5120804;27;20023;-82
2022/09/15 06:04:23;;;;;;;9.70;8.02;;;;;;;-148.88;100.00;74999.34;5120296;27;20034;-84
2022/09/15 06:06:48;;;;;;;10.45;8.27;;;;;;;-148.88;100.00;75005.44;5120254;27;20019;-83
2022/09/15 06:09:14;;;;;;;12.48;8.23;;;;;;;-148.88;100.00;75013.56;5120040;27;20023;-83
2022/09/15 06:11:40;;;;;;;11.80;8.57;;;;;;;-148.88;100.00;75003.41;5119865;27;20030;-83
2022/09/15 06:14:05;;;;;;;12.73;8.57;;;;;;;-148.88;100.00;75009.50;5119691;27;20022;-83
2022/09/15 06:16:32;;;;;;;12.18;8.27;;;;;;;-148.88;100.00;75005.44;5119748;27;20027;-83
2022/09/15 06:18:58;;;;;;;11.10;8.40;;;;;;;-148.88;100.00;74993.25;5137805;27;20031;-83
2022/09/15 06:21:27;;;;;;;10.50;8.65;;;;;;;-148.88;100.00;74985.13;5137834;27;20055;-82
2022/09/15 06:23:58;;;;;;;12.25;8.30;;;;;;;-148.88;100.00;74989.19;5118773;27;20030;-82
2022/09/15 06:26:24;;;;;;;11.48;8.52;;;;;;;-148.88;100.00;74991.22;5138082;27;20039;-83
2022/09/15 06:28:55;;;;;;;8.68;7.30;;;;;;;-148.88;100.00;74977.00;5119403;27;20020;-82
2022/09/15 06:31:22;;;;;;;11.32;8.10;;;;;;;-148.88;100.00;74972.94;5138201;27;20105;-83
2022/09/15 06:33:50;;;;;;;9.63;6.82;;;;;;;-148.88;100.00;74968.88;5119089;27;20098;-83
2022/09/15 06:36:16;;;;;;;13.77;7.03;;;;;;;-148.88;100.00;74972.94;5119358;27;20345;-83
2022/09/15 06:38:42;;;;;;;9.55;6.35;;;;;;;-148.88;100.00;74977.00;5119224;27;20091;-83
2022/09/15 06:41:08;;;;;;;9.40;6.22;;;;;;;-148.88;100.00;74972.94;5119191;27;20027;-83
2022/09/15 06:43:35;;;;;;;8.07;5.53;;;;;;;-148.88;100.00;74958.72;5137503;27;20023;-83
2022/09/15 06:46:08;;;;;;;9.45;5.80;;;;;;;-148.88;100.00;74966.84;5119272;27;20381;-83
2022/09/15 06:48:34;;;;;;;8.48;6.00;;;;;;;-148.88;100.00;74958.72;5119942;27;20027;-83
2022/09/15 06:51:00;;;;;;;10.45;5.78;;;;;;;-148.88;100.00;74964.81;5119387;27;20038;-83
2022/09/15 06:53:29;;;;;;;11.52;5.93;;;;;;;-148.88;100.00;74960.75;5137318;27;20528;-83
2022/09/15 06:55:59;;;;;;;9.63;5.50;;;;;;;-148.88;100.00;74946.53;5118004;28;20049;-83
2022/09/15 06:58:24;;;;;;;7.93;5.32;;;;;;;-148.88;100.00;74956.69;5118644;27;20034;-83
2022/09/15 07:00:50;;;;;;;8.70;5.28;;;;;;;-148.88;100.00;74944.53;5118545;27;20027;-83
2022/09/15 07:03:15;;;;;;;9.27;4.72;;;;;;;-148.88;100.00;74944.53;5118140;27;20026;-83
2022/09/15 07:05:42;;;;;;;8.50;5.00;;;;;;;-148.88;100.00;74940.47;5118666;27;20031;-83
2022/09/15 07:08:08;;;;;;;8.57;4.90;;;;;;;-148.88;100.00;74932.34;5118717;27;20043;-83
2022/09/15 07:10:33;;;;;;;7.93;4.80;;;;;;;-148.88;100.00;74926.25;5118430;27;20096;-83
2022/09/15 07:13:00;;;;;;;6.90;4.85;;;;;;;-148.88;100.00;74926.25;5118473;27;20500;-83
2022/09/15 07:15:26;;;;;;;13.02;4.82;;;;;;;-148.88;100.00;74910.00;5137199;27;20023;-83
2022/09/15 07:17:51;;;;;;;10.50;5.05;;;;;;;-148.88;100.00;74912.03;5118352;27;20095;-83
2022/09/15 07:20:17;;;;;;;12.13;4.53;;;;;;;-148.88;100.00;74903.91;5118489;27;20015;-83
2022/09/15 07:22:43;;;;;;;8.20;4.32;;;;;;;-148.88;100.00;74905.94;5118201;27;20019;-82
2022/09/15 07:25:08;;;;;;;9.75;4.35;;;;;;;-148.88;100.00;74895.78;5136692;27;20031;-83
2022/09/15 07:27:33;;;;;;;9.50;3.92;;;;;;;-148.88;100.00;74887.66;5137563;27;20114;-83
2022/09/15 07:29:59;;;;;;;7.95;3.50;;;;;;;-148.88;100.00;74885.63;5118877;27;20489;-83
2022/09/15 07:32:24;;;;;;;5.57;3.30;;;;;;;-148.88;100.00;74875.47;5118082;27;20432;-83
2022/09/15 07:34:51;;;;;;;8.45;3.72;;;;;;;-148.88;100.00;74875.47;5117726;27;20033;-83
2022/09/15 07:37:16;;;;;;;6.63;3.17;;;;;;;-148.88;100.00;74887.66;5118053;27;20019;-83
2022/09/15 07:39:42;;;;;;;8.15;3.05;;;;;;;-148.88;100.00;74871.41;5136284;27;20030;-83
2022/09/15 07:42:07;;;;;;;11.05;3.45;;;;;;;-148.88;99.74;74879.53;5118192;27;20019;-83
2022/09/15 07:44:32;;;;;;;7.25;3.08;;;;;;;-148.88;98.32;74881.56;5117604;27;20397;-83
2022/09/15 07:46:57;;;;;;;9.90;3.20;;;;;;;-148.88;98.04;74879.53;5117780;27;20385;-83
2022/09/15 07:49:23;;;;;;;7.82;3.28;;;;;;;-148.88;98.36;74883.59;5117876;27;20076;-83
2022/09/15 07:51:48;;;;;;;7.63;3.08;;;;;;;-148.88;97.51;74867.34;5118260;27;20026;-83
2022/09/15 07:54:14;;;;;;;10.40;3.20;;;;;;;-148.88;96.54;74879.53;5136064;27;20361;-83
2022/09/15 07:56:39;;;;;;;7.32;2.88;;;;;;;-148.88;96.45;74881.56;5136163;27;20019;-83
2022/09/15 07:59:04;;;;;;;8.77;2.63;;;;;;;-148.88;96.14;74875.47;5136242;27;20076;-83
2022/09/15 08:01:29;;;;;;;7.00;2.50;;;;;;;-148.88;94.64;74871.41;5118071;27;20106;-83
2022/09/15 08:03:55;;;;;;;5.38;2.30;;;;;;;-148.88;94.41;74865.31;5135975;27;20042;-83
2022/09/15 08:06:22;;;;;;;6.50;2.42;;;;;;;-148.88;93.85;74838.91;5117244;27;20513;-83
2022/09/15 08:08:49;;;;;;;6.22;2.58;;;;;;;-148.88;93.30;74818.59;5117186;27;20026;-83
2022/09/15 08:11:19;;;;;;;7.38;2.38;;;;;;;-148.88;91.81;74824.69;5117320;27;20022;-83
2022/09/15 08:13:49;;;;;;;9.27;2.50;;;;;;;-148.88;90.75;74802.38;5117200;27;20532;-83
2022/09/15 08:16:17;;;;;;;7.00;2.10;;;;;;;-148.88;89.37;74788.16;5117139;27;20015;-83
2022/09/15 08:18:43;;;;;;;6.30;1.95;;;;;;;-148.88;87.90;74761.75;5116924;27;20015;-84
2022/09/15 08:21:11;;;;;;;5.78;1.98;;;;;;;-148.88;86.68;74767.84;5117145;27;20064;-83
2022/09/15 08:23:37;;;;;;;7.82;2.17;;;;;;;-148.88;87.11;74751.59;5116782;27;20486;-83
2022/09/15 08:26:08;;;;;;;6.07;1.83;;;;;;;-148.88;85.45;74765.81;5117632;27;20104;-84
2022/09/15 08:28:33;;;;;;;14.77;2.50;;;;;;;-148.88;85.71;74737.38;5135522;27;20051;-83
2022/09/15 08:31:01;;;;;;;4.15;1.60;;;;;;;-148.88;85.06;74710.97;5135621;27;20080;-83
2022/09/15 08:33:26;;;;;;;4.90;1.55;;;;;;;-148.88;82.59;74700.84;5135311;27;20047;-83
2022/09/15 08:35:53;;;;;;;7.30;2.08;;;;;;;-148.88;79.78;74721.13;5117087;27;20065;-83
2022/09/15 08:38:19;;;;;;;5.82;1.70;;;;;;;-148.88;81.98;74710.97;5116798;27;20384;-83
2022/09/15 08:40:45;;;;;;;6.20;2.10;;;;;;;-148.88;83.37;74694.75;5116955;27;20119;-84
2022/09/15 08:43:25;;;;;;;9.82;2.50;;;;;;;-148.88;81.09;74704.88;5117130;27;20030;-84
2022/09/15 08:46:04;;;;;;;6.05;1.55;;;;;;;-148.88;79.29;74702.84;5116554;27;20041;-84
2022/09/15 08:48:39;;;;;;;6.35;1.90;;;;;;;-148.88;77.24;74708.94;5116875;27;20020;-84
2022/09/15 08:51:10;;;;;;;4.55;1.20;;;;;;;-148.88;76.57;74717.06;5134711;27;20030;-84
2022/09/15 08:53:45;;;;;;;9.75;1.40;;;;;;;-148.88;77.47;74708.94;5116204;27;20015;-83
2022/09/15 08:56:16;;;;;;;7.22;1.20;;;;;;;-148.88;73.45;74700.84;5116293;27;20020;-84
2022/09/15 08:58:42;;;;;;;7.32;1.13;;;;;;;-148.88;71.25;74686.63;5116227;27;20027;-83
2022/09/15 09:01:21;;;;;;;5.85;1.48;;;;;;;-148.88;70.81;74668.34;5134623;27;20388;-83
2022/09/15 09:04:02;;;;;;;6.05;1.60;;;;;;;-148.88;70.63;74633.81;5116043;27;20554;-84
2022/09/15 09:07:08;;;;;;;7.80;1.20;;;;;;;-148.88;71.00;74601.31;5117116;27;20027;-84
2022/09/15 09:09:44;;;;;;;5.15;1.38;;;;;;;-148.88;67.96;74595.25;5116117;27;20111;-83
2022/09/15 09:12:54;;;;;;;6.60;1.70;;;;;;;-148.88;66.27;74576.97;5116171;27;20477;-84
2022/09/15 09:15:41;;;;;;;4.97;1.25;;;;;;;-148.88;64.83;74562.75;5134392;27;20022;-84
2022/09/15 09:18:34;;;;;;;5.03;1.20;;;;;;;-148.88;64.87;74524.16;5116188;27;20023;-83
2022/09/15 09:21:12;;;;;;;5.93;1.40;;;;;;;-148.88;62.31;74509.94;5115143;27;20135;-84
2022/09/15 09:23:48;;;;;;;6.43;1.58;;;;;;;-148.88;63.00;74522.13;5134359;27;20102;-83
2022/09/15 09:26:13;;;;;;;6.88;1.20;;;;;;;-148.88;62.30;74530.25;5116049;27;20062;-83
2022/09/15 09:28:47;;;;;;;9.00;1.38;;;;;;;-148.88;61.66;74489.66;5117639;27;20030;-84
2022/09/15 09:31:20;;;;;;;;;;;;;;;-148.88;60.89;74558.69;5116290;27;20041;-84
2022/09/15 09:33:53;;;;;;;4.95;1.17;;;;;;;-148.88;62.98;74574.94;5115975;28;19918;-84
2022/09/15 09:36:18;;;;;;;4.18;1.13;;;;;;;-148.88;59.92;74558.69;5115954;28;20027;-84
2022/09/15 09:38:45;;;;;;;5.50;1.25;;;;;;;-148.88;59.45;74548.53;5115875;28;20027;-84
2022/09/15 09:41:15;;;;;;;6.15;1.27;;;;;;;-148.88;60.63;74554.63;5116014;28;20019;-85
2022/09/15 09:43:42;;;;;;;7.72;1.77;;;;;;;-148.88;61.41;74566.81;5115591;28;20023;-83
2022/09/15 09:46:15;;;;;;;9.75;1.33;;;;;;;-148.88;61.52;74566.81;5116722;28;20037;-84
2022/09/15 09:48:46;;;;;;;6.72;1.40;;;;;;;-148.88;61.71;74542.44;5134170;27;20110;-84
2022/09/15 09:51:35;;;;;;;4.22;1.15;;;;;;;-148.88;59.82;74524.16;5116491;28;20380;-83
2022/09/15 09:54:08;;;;;;;5.88;1.13;;;;;;;-148.88;57.67;74481.53;5133954;27;20034;-84
2022/09/15 09:56:34;;;;;;;6.60;1.45;;;;;;;-148.88;56.87;74473.41;5115866;28;20031;-84
2022/09/15 09:59:01;;;;;;;6.57;1.05;;;;;;;-148.88;55.82;74475.44;5134141;27;20515;-83
2022/09/15 10:01:27;;;;;;;4.38;1.20;;;;;;;-148.88;56.73;74426.69;5134430;27;20106;-83
2022/09/15 10:04:24;;;;;;;5.68;1.33;;;;;;;-148.88;55.15;74444.97;5115629;28;20157;-83
2022/09/15 10:06:54;;;;;;;6.43;1.40;;;;;;;-148.88;55.51;74449.03;5070811;28;20502;-84
2022/09/15 10:09:19;;;;;;;4.78;1.02;;;;;;;-148.88;55.25;74461.22;5115975;28;20072;-84
2022/09/15 10:11:57;;;;;;;4.22;1.15;;;;;;;-148.88;55.77;74485.59;5115575;28;20027;-83
2022/09/15 10:14:30;;;;;;;6.30;0.80;;;;;;;-148.88;56.28;74489.66;5115588;28;20471;-84
2022/09/15 10:17:04;;;;;;;2.58;0.80;;;;;;;-148.88;56.19;74471.38;5115573;28;20023;-85
2022/09/15 10:19:32;;;;;;;6.68;1.10;;;;;;;-148.88;55.11;74481.53;5134361;28;20473;-84
2022/09/15 10:22:00;;;;;;;4.25;0.90;;;;;;;-148.88;54.08;74400.31;5115813;28;20033;-84
2022/09/15 10:24:25;;;;;;;5.57;1.10;;;;;;;-148.88;53.69;74369.84;5115525;28;20493;-84
2022/09/15 10:26:51;;;;;;;6.13;0.83;;;;;;;-148.88;52.09;74351.56;5115703;28;20042;-84
2022/09/15 10:29:17;;;;;;;7.15;1.23;;;;;;;-148.88;52.80;74369.84;5115593;28;20019;-84
2022/09/15 10:31:44;;;;;;;5.22;1.15;;;;;;;-148.88;53.07;74390.16;5118081;27;20023;-85
2022/09/15 10:34:25;;;;;;;4.63;1.33;;;;;;;-148.88;54.40;74373.91;5119652;27;20011;-84
2022/09/15 10:36:53;;;;;;;7.32;1.25;;;;;;;-148.88;53.15;74351.56;5119334;27;20057;-84
2022/09/15 10:39:48;;;;;;;4.30;1.02;;;;;;;-148.88;52.18;74367.81;5119284;27;20019;-85
2022/09/15 10:42:14;;;;;;;4.95;1.08;;;;;;;-148.88;54.09;74355.63;5108420;27;20432;-86
2022/09/15 10:45:14;;;;;;;5.55;1.30;;;;;;;-148.88;54.66;74363.75;5137232;27;20031;-85
2022/09/15 10:48:05;;;;;;;3.47;1.10;;;;;;;-148.88;52.89;74325.19;5118953;27;20114;-84
2022/09/15 10:50:53;;;;;;;8.18;1.10;;;;;;;-148.88;52.97;74315.03;5118926;27;20080;-85
2022/09/15 10:53:29;;;;;;;7.38;2.03;;;;;;;-148.88;53.77;74353.59;5119583;27;20033;-88
2022/09/15 10:56:14;;;;;;;6.00;1.30;;;;;;;-148.88;54.62;74321.13;5118843;27;20062;-87
2022/09/15 10:59:03;;;;;;;5.18;0.93;;;;;;;-148.88;53.02;74308.94;5137010;27;20029;-87
2022/09/15 11:01:29;;;;;;;4.45;1.20;;;;;;;-148.88;53.41;74343.44;5137391;27;20103;-87
2022/09/15 11:04:10;;;;;;;3.93;1.17;;;;;;;-148.88;52.27;74310.97;5136967;27;20094;-86
2022/09/15 11:06:47;;;;;;;7.00;1.58;;;;;;;-148.88;52.06;74254.09;5119784;27;20330;-86
2022/09/15 11:09:19;;;;;;;6.68;1.08;;;;;;;-148.88;51.22;74195.22;5118751;27;20054;-88
2022/09/15 11:12:09;;;;;;;9.30;1.40;;;;;;;-148.88;50.74;74225.69;5137074;27;20027;-87
2022/09/15 11:14:53;;;;;;;4.43;0.90;;;;;;;-148.88;50.23;74225.69;5136905;27;20077;-87
2022/09/15 11:17:43;;;;;;;;;;;;;;;-148.88;49.93;74235.84;5119428;27;20029;-88
2022/09/15 11:20:34;;;;;;;5.65;1.35;;;;;;;-148.88;50.08;74197.25;5118519;27;20434;-89